createdAt,value
2022-12-06T00:06:01.115Z,9.77
2022-12-06T00:20:51.737Z,11.00
2022-12-06T00:35:42.204Z,9.77
2022-12-06T00:50:34.505Z,11.10
2022-12-06T01:05:25.382Z,11.96
2022-12-06T01:20:16.871Z,11.63
2022-12-06T01:35:07.398Z,10.68
2022-12-06T01:50:11.895Z,11.40
2022-12-06T02:05:09.656Z,10.99
2022-12-06T02:20:21.896Z,11.51
2022-12-06T02:35:30.769Z,12.86
2022-12-06T02:50:27.236Z,10.47
2022-12-06T03:05:17.683Z,12.36
2022-12-06T03:20:09.112Z,13.07
2022-12-06T03:35:01.841Z,10.30
2022-12-06T03:49:58.949Z,12.76
2022-12-06T04:19:52.282Z,12.38
2022-12-06T04:34:59.602Z,13.23
2022-12-06T04:49:57.248Z,11.79
2022-12-06T05:04:49.867Z,14.21
2022-12-06T05:19:40.277Z,14.77
2022-12-06T05:34:33.264Z,16.21
2022-12-06T05:49:23.524Z,15.84
2022-12-06T06:04:13.959Z,17.90
2022-12-06T06:19:06.541Z,18.08
2022-12-06T06:33:57.440Z,18.88
2022-12-06T06:48:48.367Z,18.93
2022-12-06T07:03:39.300Z,18.38
2022-12-06T07:18:32.629Z,16.71
2022-12-06T07:33:21.644Z,17.94
2022-12-06T07:48:11.526Z,17.08
2022-12-06T08:03:02.828Z,11.91
2022-12-06T08:17:52.771Z,6.70
2022-12-06T08:32:44.241Z,6.61
2022-12-06T08:47:35.212Z,7.16
2022-12-06T09:02:25.583Z,7.77
2022-12-06T09:17:16.403Z,8.52
2022-12-06T09:32:07.815Z,7.69
2022-12-06T09:47:23.645Z,6.06
2022-12-06T10:02:25.588Z,5.02
2022-12-06T10:17:28.203Z,6.37
2022-12-06T10:32:38.577Z,6.04
2022-12-06T10:47:33.161Z,7.11
2022-12-06T11:02:26.895Z,6.09
2022-12-06T11:17:19.874Z,4.86
2022-12-06T11:47:11.209Z,6.51
2022-12-06T12:02:04.913Z,6.34
2022-12-06T12:16:59.060Z,5.97
2022-12-06T12:31:56.436Z,5.83
2022-12-06T12:46:58.789Z,5.96
2022-12-06T13:17:27.995Z,5.61
2022-12-06T13:32:21.831Z,6.14
2022-12-06T13:47:28.570Z,7.11
2022-12-06T14:02:40.703Z,8.09
2022-12-06T14:18:00.642Z,6.54
2022-12-06T14:32:37.263Z,8.38
2022-12-06T14:47:31.487Z,7.70
2022-12-06T15:02:24.635Z,8.82
2022-12-06T15:17:17.597Z,6.82
2022-12-06T15:32:11.105Z,10.68
2022-12-06T15:47:01.894Z,9.60
2022-12-06T16:01:52.151Z,9.02
2022-12-06T16:16:43.694Z,9.53
2022-12-06T16:31:38.336Z,7.84
2022-12-06T16:46:26.537Z,9.13
2022-12-06T17:01:20.130Z,9.32
2022-12-06T17:16:10.800Z,9.77
2022-12-06T17:31:01.309Z,10.69
2022-12-06T17:45:51.923Z,10.51
2022-12-06T18:00:44.116Z,8.78
2022-12-06T18:15:38.574Z,8.53
2022-12-06T18:30:31.959Z,11.31
2022-12-06T18:45:22.588Z,18.87
2022-12-06T19:00:29.834Z,9.70
2022-12-06T19:15:17.651Z,9.88
2022-12-06T19:30:08.760Z,10.21
2022-12-06T19:44:59.872Z,10.46
2022-12-06T19:59:50.935Z,10.54
2022-12-06T20:14:41.855Z,13.57
2022-12-06T20:29:35.061Z,11.18
2022-12-06T20:44:25.100Z,17.84
2022-12-06T20:59:15.402Z,14.51
2022-12-06T21:14:06.068Z,14.71
2022-12-06T21:28:56.478Z,11.52
2022-12-06T21:43:48.835Z,14.50
2022-12-06T21:58:39.175Z,11.94
2022-12-06T22:13:32.434Z,12.74
2022-12-06T22:28:24.736Z,10.94
2022-12-06T22:43:14.200Z,12.14
2022-12-06T22:58:04.670Z,16.03
2022-12-06T23:12:55.968Z,13.31
2022-12-06T23:27:48.220Z,14.14
2022-12-06T23:42:38.918Z,12.88
2022-12-06T23:57:29.671Z,15.52
